Time,TemperatureF,DewpointF,PressureIn,WindDirection,WindDirectionDegrees,WindSpeedMPH,WindSpeedGustMPH,Humidity,HourlyPrecipIn,Conditions,Clouds,dailyrainin,SoftwareType,DateUTC
2013-10-11 00:02:00,56.3,44.4,29.97,East,98,0.0,0.0,64,0.00,,,0.00,WUHU216DAVISVP2,2013-10-11 07:02:00,
2013-10-11 00:07:00,55.8,44.3,29.97,East,98,0.0,0.0,65,0.00,,,0.00,WUHU216DAVISVP2,2013-10-11 07:07:00,
2013-10-11 00:12:00,55.4,45.1,29.97,East,97,0.0,0.0,68,0.00,,,0.00,WUHU216DAVISVP2,2013-10-11 07:12:00,
2013-10-11 00:17:00,55.6,44.9,29.97,SE,124,0.0,0.0,67,0.00,,,0.00,WUHU216DAVISVP2,2013-10-11 07:17:00,
2013-10-11 00:22:00,55.8,45.1,29.97,SE,124,0.0,0.0,67,0.00,,,0.00,WUHU216DAVISVP2,2013-10-11 07:22:00,
2013-10-11 00:27:00,55.8,45.1,29.97,SE,124,0.0,0.0,67,0.00,,,0.00,WUHU216DAVISVP2,2013-10-11 07:27:00,
2013-10-11 00:32:00,55.5,44.7,29.97,SE,124,0.0,0.0,67,0.00,,,0.00,WUHU216DAVISVP2,2013-10-11 07:32:00,
2013-10-11 00:37:00,55.3,45.0,29.98,SE,138,0.0,0.0,68,0.00,,,0.00,WUHU216DAVISVP2,2013-10-11 07:37:00,
2013-10-11 00:42:00,55.3,45.0,29.98,SE,139,0.0,0.0,68,0.00,,,0.00,WUHU216DAVISVP2,2013-10-11 07:42:00,
2013-10-11 00:47:00,55.1,44.7,29.98,SE,139,0.0,0.0,68,0.00,,,0.00,WUHU216DAVISVP2,2013-10-11 07:47:00,
2013-10-11 00:52:00,55.0,45.5,29.98,SE,138,0.0,0.0,70,0.00,,,0.00,WUHU216DAVISVP2,2013-10-11 07:52:00,
2013-10-11 00:57:00,54.8,45.3,29.98,SE,138,0.0,0.0,70,0.00,,,0.00,WUHU216DAVISVP2,2013-10-11 07:57:00,
2013-10-11 01:02:00,54.4,45.3,29.98,SE,138,0.0,0.0,71,0.00,,,0.00,WUHU216DAVISVP2,2013-10-11 08:02:00,
2013-10-11 01:07:00,54.1,44.9,29.98,SE,138,0.0,0.0,71,0.00,,,0.00,WUHU216DAVISVP2,2013-10-11 08:07:00,
2013-10-11 01:12:00,53.8,45.4,29.98,SE,139,0.0,0.0,73,0.00,,,0.00,WUHU216DAVISVP2,2013-10-11 08:12:00,
2013-10-11 01:17:00,53.8,45.8,29.98,SSW,201,0.0,0.0,74,0.00,,,0.00,WUHU216DAVISVP2,2013-10-11 08:17:00,
2013-10-11 01:22:00,53.7,45.6,29.98,SSE,158,0.0,0.0,74,0.00,,,0.00,WUHU216DAVISVP2,2013-10-11 08:22:00,
2013-10-11 01:27:00,53.6,45.6,29.99,SSE,158,0.0,0.0,74,0.00,,,0.00,WUHU216DAVISVP2,2013-10-11 08:27:00,
2013-10-11 01:32:00,53.4,45.4,29.99,SSE,158,0.0,0.0,74,0.00,,,0.00,WUHU216DAVISVP2,2013-10-11 08:32:00,
2013-10-11 01:37:00,53.2,45.2,29.99,SSE,158,0.0,0.0,74,0.00,,,0.00,WUHU216DAVISVP2,2013-10-11 08:37:00,
2013-10-11 01:42:00,53.0,45.3,29.99,SSE,158,0.0,0.0,75,0.00,,,0.00,WUHU216DAVISVP2,2013-10-11 08:42:00,
2013-10-11 01:47:00,52.9,45.3,29.99,SSE,158,0.0,0.0,75,0.00,,,0.00,WUHU216DAVISVP2,2013-10-11 08:47:00,
2013-10-11 01:52:00,52.7,45.1,29.99,SSE,158,0.0,0.0,75,0.00,,,0.00,WUHU216DAVISVP2,2013-10-11 08:52:00,
2013-10-11 01:57:00,52.5,45.2,29.99,SSE,158,0.0,0.0,76,0.00,,,0.00,WUHU216DAVISVP2,2013-10-11 08:57:00,
2013-10-11 02:02:00,52.4,45.5,29.99,SSE,158,0.0,0.0,77,0.00,,,0.00,WUHU216DAVISVP2,2013-10-11 09:02:00,
2013-10-11 02:07:00,52.2,45.6,29.99,SSE,158,0.0,0.0,78,0.00,,,0.00,WUHU216DAVISVP2,2013-10-11 09:07:00,
2013-10-11 02:12:00,52.1,45.5,29.99,ESE,122,0.0,0.0,78,0.00,,,0.00,WUHU216DAVISVP2,2013-10-11 09:12:00,
2013-10-11 02:17:00,52.0,45.7,29.99,ESE,122,0.0,0.0,79,0.00,,,0.00,WUHU216DAVISVP2,2013-10-11 09:17:00,
2013-10-11 02:22:00,51.8,45.8,29.99,ESE,122,0.0,0.0,80,0.00,,,0.00,WUHU216DAVISVP2,2013-10-11 09:22:00,
2013-10-11 02:27:00,51.9,46.0,29.99,ESE,122,0.0,0.0,80,0.00,,,0.00,WUHU216DAVISVP2,2013-10-11 09:27:00,
2013-10-11 02:32:00,51.9,46.0,29.99,ESE,122,0.0,0.0,80,0.00,,,0.00,WUHU216DAVISVP2,2013-10-11 09:32:00,
2013-10-11 02:37:00,51.8,45.9,29.99,ESE,122,0.0,0.0,80,0.00,,,0.00,WUHU216DAVISVP2,2013-10-11 09:37:00,
2013-10-11 02:42:00,51.8,45.8,29.99,ESE,122,0.0,0.0,80,0.00,,,0.00,WUHU216DAVISVP2,2013-10-11 09:42:00,
2013-10-11 02:47:00,51.5,45.6,29.99,ESE,122,0.0,0.0,80,0.00,,,0.00,WUHU216DAVISVP2,2013-10-11 09:47:00,
2013-10-11 02:52:00,51.3,45.4,29.99,ESE,122,0.0,0.0,80,0.00,,,0.00,WUHU216DAVISVP2,2013-10-11 09:52:00,
2013-10-11 02:57:00,51.1,45.2,29.99,ESE,122,0.0,0.0,80,0.00,,,0.00,WUHU216DAVISVP2,2013-10-11 09:57:00,
2013-10-11 03:02:00,50.8,44.9,29.99,ESE,122,0.0,0.0,80,0.00,,,0.00,WUHU216DAVISVP2,2013-10-11 10:02:00,
2013-10-11 03:07:00,50.6,44.7,29.99,ESE,122,0.0,0.0,80,0.00,,,0.00,WUHU216DAVISVP2,2013-10-11 10:07:00,
2013-10-11 03:12:00,50.4,44.5,29.99,ESE,122,0.0,0.0,80,0.00,,,0.00,WUHU216DAVISVP2,2013-10-11 10:12:00,
2013-10-11 03:17:00,50.0,44.1,29.99,ESE,122,0.0,0.0,80,0.00,,,0.00,WUHU216DAVISVP2,2013-10-11 10:17:00,
2013-10-11 03:22:00,49.8,43.9,29.99,ESE,122,0.0,0.0,80,0.00,,,0.00,WUHU216DAVISVP2,2013-10-11 10:22:00,
2013-10-11 03:27:00,50.1,44.2,29.99,ESE,122,0.0,0.0,80,0.00,,,0.00,WUHU216DAVISVP2,2013-10-11 10:27:00,
2013-10-11 03:32:00,50.5,44.3,29.99,ESE,122,0.0,0.0,79,0.00,,,0.00,WUHU216DAVISVP2,2013-10-11 10:32:00,
2013-10-11 03:37:00,50.4,44.2,29.99,ESE,122,0.0,0.0,79,0.00,,,0.00,WUHU216DAVISVP2,2013-10-11 10:37:00,
2013-10-11 03:42:00,50.3,44.1,29.99,ESE,122,0.0,0.0,79,0.00,,,0.00,WUHU216DAVISVP2,2013-10-11 10:42:00,
2013-10-11 03:47:00,50.2,44.3,29.99,ESE,122,0.0,0.0,80,0.00,,,0.00,WUHU216DAVISVP2,2013-10-11 10:47:00,
2013-10-11 03:52:00,50.3,44.4,29.99,ESE,122,0.0,0.0,80,0.00,,,0.00,WUHU216DAVISVP2,2013-10-11 10:52:00,
2013-10-11 03:57:00,50.2,44.0,29.99,ESE,122,0.0,0.0,79,0.00,,,0.00,WUHU216DAVISVP2,2013-10-11 10:57:00,
2013-10-11 04:02:00,50.0,43.8,29.99,ESE,122,0.0,0.0,79,0.00,,,0.00,WUHU216DAVISVP2,2013-10-11 11:02:00,
2013-10-11 04:07:00,50.0,44.1,29.99,SE,124,0.0,0.0,80,0.00,,,0.00,WUHU216DAVISVP2,2013-10-11 11:07:00,
2013-10-11 04:12:00,49.9,44.0,29.99,SE,124,0.0,0.0,80,0.00,,,0.00,WUHU216DAVISVP2,2013-10-11 11:12:00,
2013-10-11 04:17:00,49.6,43.7,29.99,ESE,122,0.0,0.0,80,0.00,,,0.00,WUHU216DAVISVP2,2013-10-11 11:17:00,
2013-10-11 04:22:00,49.4,43.8,30.00,ESE,122,0.0,0.0,81,0.00,,,0.00,WUHU216DAVISVP2,2013-10-11 11:22:00,
2013-10-11 04:27:00,49.5,43.9,30.00,SE,124,0.0,0.0,81,0.00,,,0.00,WUHU216DAVISVP2,2013-10-11 11:27:00,
2013-10-11 04:32:00,49.6,44.3,30.00,ESE,122,0.0,0.0,82,0.00,,,0.00,WUHU216DAVISVP2,2013-10-11 11:32:00,
2013-10-11 04:37:00,49.7,44.4,30.00,ESE,122,0.0,0.0,82,0.00,,,0.00,WUHU216DAVISVP2,2013-10-11 11:37:00,
2013-10-11 04:42:00,49.6,44.0,30.00,SE,124,0.0,0.0,81,0.00,,,0.00,WUHU216DAVISVP2,2013-10-11 11:42:00,
2013-10-11 04:47:00,49.2,43.3,30.00,SE,124,0.0,0.0,80,0.00,,,0.00,WUHU216DAVISVP2,2013-10-11 11:47:00,
2013-10-11 04:52:00,49.0,43.4,30.00,ESE,122,0.0,0.0,81,0.00,,,0.00,WUHU216DAVISVP2,2013-10-11 11:52:00,
2013-10-11 04:57:00,49.1,43.9,30.01,SE,124,0.0,0.0,82,0.00,,,0.00,WUHU216DAVISVP2,2013-10-11 11:57:00,
2013-10-11 05:02:00,49.1,44.2,30.01,SE,124,0.0,0.0,83,0.00,,,0.00,WUHU216DAVISVP2,2013-10-11 12:02:00,
2013-10-11 05:07:00,48.1,43.2,30.01,ESE,122,0.0,0.0,83,0.00,,,0.00,WUHU216DAVISVP2,2013-10-11 12:07:00,
2013-10-11 05:12:00,48.1,43.2,30.01,ESE,122,0.0,0.0,83,0.00,,,0.00,WUHU216DAVISVP2,2013-10-11 12:12:00,
2013-10-11 07:38:00,50.2,46.2,30.03,ESE,122,0.0,0.0,86,0.00,,,0.00,WUHU216DAVISVP2,2013-10-11 14:38:00,
2013-10-11 07:43:00,51.2,46.2,30.03,ESE,122,0.0,0.0,83,0.00,,,0.00,WUHU216DAVISVP2,2013-10-11 14:43:00,
2013-10-11 07:48:00,52.3,46.4,30.03,SE,134,0.0,0.0,80,0.00,,,0.00,WUHU216DAVISVP2,2013-10-11 14:48:00,
2013-10-11 07:53:00,53.3,46.3,30.03,SE,134,0.0,0.0,77,0.00,,,0.00,WUHU216DAVISVP2,2013-10-11 14:53:00,
2013-10-11 07:58:00,54.3,46.3,30.04,SE,135,0.0,0.0,74,0.00,,,0.00,WUHU216DAVISVP2,2013-10-11 14:58:00,
2013-10-11 08:03:00,55.1,45.6,30.04,SSE,151,1.1,3.0,70,0.00,,,0.00,WUHU216DAVISVP2,2013-10-11 15:03:00,
2013-10-11 08:08:00,55.5,44.8,30.04,SE,144,1.8,3.0,67,0.00,,,0.00,WUHU216DAVISVP2,2013-10-11 15:08:00,
2013-10-11 08:13:00,55.7,44.6,30.04,SE,124,2.0,4.0,66,0.00,,,0.00,WUHU216DAVISVP2,2013-10-11 15:13:00,
2013-10-11 08:18:00,56.0,44.9,30.04,SSE,153,2.0,4.0,66,0.00,,,0.00,WUHU216DAVISVP2,2013-10-11 15:18:00,
2013-10-11 08:23:00,56.5,45.0,30.04,SSE,147,1.2,4.0,65,0.00,,,0.00,WUHU216DAVISVP2,2013-10-11 15:23:00,
2013-10-11 08:28:00,57.0,44.9,30.04,ESE,114,1.4,4.0,64,0.00,,,0.00,WUHU216DAVISVP2,2013-10-11 15:28:00,
2013-10-11 08:33:00,57.4,44.9,30.04,SSE,156,3.0,4.0,63,0.00,,,0.00,WUHU216DAVISVP2,2013-10-11 15:33:00,
2013-10-11 08:38:00,57.8,44.9,30.04,SSE,155,3.0,3.0,62,0.00,,,0.00,WUHU216DAVISVP2,2013-10-11 15:38:00,
2013-10-11 08:43:00,58.2,45.2,30.04,ESE,119,2.2,4.0,62,0.00,,,0.00,WUHU216DAVISVP2,2013-10-11 15:43:00,
2013-10-11 08:48:00,58.6,45.2,30.04,SSE,155,1.3,4.0,61,0.00,,,0.00,WUHU216DAVISVP2,2013-10-11 15:48:00,
2013-10-11 08:53:00,59.3,45.0,30.05,SSE,156,2.1,4.0,59,0.00,,,0.00,WUHU216DAVISVP2,2013-10-11 15:53:00,
2013-10-11 08:58:00,59.8,45.1,30.04,South,184,3.0,4.0,58,0.00,,,0.00,WUHU216DAVISVP2,2013-10-11 15:58:00,
2013-10-11 09:03:00,60.1,44.9,30.05,SSE,150,2.3,5.0,57,0.00,,,0.00,WUHU216DAVISVP2,2013-10-11 16:03:00,
2013-10-11 09:08:00,60.4,44.7,30.05,SSE,150,2.2,5.0,56,0.00,,,0.00,WUHU216DAVISVP2,2013-10-11 16:08:00,
2013-10-11 09:13:00,60.8,45.1,30.04,SE,139,3.0,5.0,56,0.00,,,0.00,WUHU216DAVISVP2,2013-10-11 16:13:00,
2013-10-11 09:18:00,61.3,45.1,30.05,SSE,157,1.5,5.0,55,0.00,,,0.00,WUHU216DAVISVP2,2013-10-11 16:18:00,
2013-10-11 09:23:00,61.8,44.5,30.05,SE,134,1.8,5.0,53,0.00,,,0.00,WUHU216DAVISVP2,2013-10-11 16:23:00,
2013-10-11 09:28:00,62.2,44.9,30.05,SSE,148,2.6,5.0,53,0.00,,,0.00,WUHU216DAVISVP2,2013-10-11 16:28:00,
2013-10-11 09:33:00,62.4,44.6,30.05,ESE,121,2.0,4.0,52,0.00,,,0.00,WUHU216DAVISVP2,2013-10-11 16:33:00,
2013-10-11 09:38:00,62.9,45.1,30.05,SE,139,1.5,4.0,52,0.00,,,0.00,WUHU216DAVISVP2,2013-10-11 16:38:00,
2013-10-11 09:43:00,63.5,44.5,30.05,SE,136,2.0,4.0,50,0.00,,,0.00,WUHU216DAVISVP2,2013-10-11 16:43:00,
2013-10-11 09:48:00,64.5,44.9,30.05,SSE,164,1.0,4.0,49,0.00,,,0.00,WUHU216DAVISVP2,2013-10-11 16:48:00,
2013-10-11 09:53:00,65.2,44.5,30.05,SSE,164,1.9,3.0,47,0.00,,,0.00,WUHU216DAVISVP2,2013-10-11 16:53:00,
2013-10-11 09:58:00,65.6,44.8,30.04,South,172,2.0,3.0,47,0.00,,,0.00,WUHU216DAVISVP2,2013-10-11 16:58:00,
2013-10-11 10:03:00,66.0,44.6,30.04,South,179,1.0,3.0,46,0.00,,,0.00,WUHU216DAVISVP2,2013-10-11 17:03:00,
2013-10-11 10:08:00,66.7,44.0,30.04,SSE,152,1.1,3.0,44,0.00,,,0.00,WUHU216DAVISVP2,2013-10-11 17:08:00,
2013-10-11 10:13:00,67.1,45.0,30.04,South,173,1.0,3.0,45,0.00,,,0.00,WUHU216DAVISVP2,2013-10-11 17:13:00,
2013-10-11 10:18:00,67.5,44.8,30.04,SSW,196,1.2,3.0,44,0.00,,,0.00,WUHU216DAVISVP2,2013-10-11 17:18:00,
2013-10-11 10:23:00,68.2,44.1,30.03,SSE,160,1.0,3.0,42,0.00,,,0.00,WUHU216DAVISVP2,2013-10-11 17:23:00,
2013-10-11 10:28:00,68.7,43.9,30.04,SSE,156,1.6,3.0,41,0.00,,,0.00,WUHU216DAVISVP2,2013-10-11 17:28:00,
2013-10-11 10:33:00,68.8,44.1,30.03,East,86,1.0,3.0,41,0.00,,,0.00,WUHU216DAVISVP2,2013-10-11 17:33:00,
2013-10-11 10:38:00,69.2,45.1,30.03,SSW,212,0.0,3.0,42,0.00,,,0.00,WUHU216DAVISVP2,2013-10-11 17:38:00,
2013-10-11 10:43:00,69.7,44.8,30.03,SE,139,1.1,3.0,41,0.00,,,0.00,WUHU216DAVISVP2,2013-10-11 17:43:00,
2013-10-11 10:48:00,69.8,44.9,30.03,SE,130,1.1,3.0,41,0.00,,,0.00,WUHU216DAVISVP2,2013-10-11 17:48:00,
2013-10-11 10:53:00,70.2,45.3,30.03,South,186,1.4,3.0,41,0.00,,,0.00,WUHU216DAVISVP2,2013-10-11 17:53:00,
2013-10-11 10:58:00,70.9,45.3,30.03,SSW,200,2.0,3.0,40,0.00,,,0.00,WUHU216DAVISVP2,2013-10-11 17:58:00,
2013-10-11 11:03:00,71.3,45.1,30.03,East,98,1.3,3.0,39,0.00,,,0.00,WUHU216DAVISVP2,2013-10-11 18:03:00,
2013-10-11 11:08:00,71.6,45.3,30.03,WSW,255,1.0,3.0,39,0.00,,,0.00,WUHU216DAVISVP2,2013-10-11 18:08:00,
2013-10-11 11:13:00,71.9,45.5,30.03,West,269,1.1,3.0,39,0.00,,,0.00,WUHU216DAVISVP2,2013-10-11 18:13:00,
2013-10-11 11:18:00,72.0,46.2,30.03,WSW,256,1.0,2.0,40,0.00,,,0.00,WUHU216DAVISVP2,2013-10-11 18:18:00,
2013-10-11 11:23:00,71.8,44.7,30.03,West,279,2.2,3.0,38,0.00,,,0.00,WUHU216DAVISVP2,2013-10-11 18:23:00,
2013-10-11 11:28:00,71.2,45.5,30.03,WNW,288,1.8,3.0,40,0.00,,,0.00,WUHU216DAVISVP2,2013-10-11 18:28:00,
2013-10-11 11:33:00,71.4,45.0,30.03,ENE,72,1.0,3.0,39,0.00,,,0.00,WUHU216DAVISVP2,2013-10-11 18:33:00,
2013-10-11 11:38:00,72.0,45.6,30.02,WNW,302,3.0,4.0,39,0.00,,,0.00,WUHU216DAVISVP2,2013-10-11 18:38:00,
2013-10-11 11:43:00,71.8,45.4,30.02,NW,309,3.0,4.0,39,0.00,,,0.00,WUHU216DAVISVP2,2013-10-11 18:43:00,
2013-10-11 11:48:00,71.7,45.3,30.02,West,267,1.0,4.0,39,0.00,,,0.00,WUHU216DAVISVP2,2013-10-11 18:48:00,
2013-10-11 11:53:00,72.4,45.9,30.02,West,275,1.3,4.0,39,0.00,,,0.00,WUHU216DAVISVP2,2013-10-11 18:53:00,
2013-10-11 11:58:00,73.1,45.8,30.02,WNW,286,2.3,5.0,38,0.00,,,0.00,WUHU216DAVISVP2,2013-10-11 18:58:00,
2013-10-11 12:03:00,72.8,46.3,30.02,WNW,300,1.6,5.0,39,0.00,,,0.00,WUHU216DAVISVP2,2013-10-11 19:03:00,
2013-10-11 12:08:00,73.5,47.7,30.01,NW,304,3.0,5.0,40,0.00,,,0.00,WUHU216DAVISVP2,2013-10-11 19:08:00,
2013-10-11 12:13:00,73.5,45.5,30.01,WNW,282,4.4,8.0,37,0.00,,,0.00,WUHU216DAVISVP2,2013-10-11 19:13:00,
2013-10-11 12:18:00,73.5,47.6,30.01,WNW,292,4.0,8.0,40,0.00,,,0.00,WUHU216DAVISVP2,2013-10-11 19:18:00,
2013-10-11 12:23:00,73.7,47.8,30.00,NW,317,2.0,8.0,40,0.00,,,0.00,WUHU216DAVISVP2,2013-10-11 19:23:00,
2013-10-11 12:28:00,74.0,48.0,30.00,West,278,1.3,8.0,40,0.00,,,0.00,WUHU216DAVISVP2,2013-10-11 19:28:00,
2013-10-11 12:33:00,74.6,47.2,30.00,NW,314,3.0,4.0,38,0.00,,,0.00,WUHU216DAVISVP2,2013-10-11 19:33:00,
2013-10-11 12:38:00,74.7,45.2,30.00,West,280,2.2,4.0,35,0.00,,,0.00,WUHU216DAVISVP2,2013-10-11 19:38:00,
2013-10-11 12:43:00,74.5,45.8,30.00,WSW,253,4.0,6.0,36,0.00,,,0.00,WUHU216DAVISVP2,2013-10-11 19:43:00,
2013-10-11 12:48:00,74.3,46.2,29.99,WNW,294,4.0,6.0,37,0.00,,,0.00,WUHU216DAVISVP2,2013-10-11 19:48:00,
2013-10-11 12:53:00,74.8,47.4,29.99,WNW,299,1.6,5.0,38,0.00,,,0.00,WUHU216DAVISVP2,2013-10-11 19:53:00,
2013-10-11 12:58:00,75.6,48.1,29.99,WNW,301,1.7,5.0,38,0.00,,,0.00,WUHU216DAVISVP2,2013-10-11 19:58:00,
2013-10-11 13:03:00,75.9,46.9,29.98,NW,316,1.1,5.0,36,0.00,,,0.00,WUHU216DAVISVP2,2013-10-11 20:03:00,
2013-10-11 13:08:00,76.7,46.2,29.98,West,277,1.0,3.0,34,0.00,,,0.00,WUHU216DAVISVP2,2013-10-11 20:08:00,
2013-10-11 13:13:00,76.9,47.9,29.98,WNW,297,1.5,4.0,36,0.00,,,0.00,WUHU216DAVISVP2,2013-10-11 20:13:00,
2013-10-11 13:18:00,76.8,46.9,29.98,NW,318,1.1,4.0,35,0.00,,,0.00,WUHU216DAVISVP2,2013-10-11 20:18:00,
2013-10-11 13:23:00,76.6,46.7,29.97,NW,315,1.0,4.0,35,0.00,,,0.00,WUHU216DAVISVP2,2013-10-11 20:23:00,
2013-10-11 13:28:00,77.2,47.3,29.97,NW,316,1.0,4.0,35,0.00,,,0.00,WUHU216DAVISVP2,2013-10-11 20:28:00,
2013-10-11 13:33:00,77.6,47.6,29.97,NNW,329,2.0,4.0,35,0.00,,,0.00,WUHU216DAVISVP2,2013-10-11 20:33:00,
2013-10-11 13:38:00,77.0,47.2,29.97,NW,326,3.0,5.0,35,0.00,,,0.00,WUHU216DAVISVP2,2013-10-11 20:38:00,
2013-10-11 13:43:00,76.5,47.4,29.97,WNW,295,1.4,7.0,36,0.00,,,0.00,WUHU216DAVISVP2,2013-10-11 20:43:00,
2013-10-11 13:48:00,76.5,47.4,29.96,NNE,23,1.2,7.0,36,0.00,,,0.00,WUHU216DAVISVP2,2013-10-11 20:48:00,
2013-10-11 13:53:00,77.4,47.5,29.96,NW,321,1.3,7.0,35,0.00,,,0.00,WUHU216DAVISVP2,2013-10-11 20:53:00,
2013-10-11 13:58:00,77.7,46.9,29.96,NW,321,1.1,7.0,34,0.00,,,0.00,WUHU216DAVISVP2,2013-10-11 20:58:00,
2013-10-11 14:03:00,77.5,46.1,29.95,West,278,3.0,4.0,33,0.00,,,0.00,WUHU216DAVISVP2,2013-10-11 21:03:00,
2013-10-11 14:08:00,77.3,47.4,29.95,NNW,331,1.0,4.0,35,0.00,,,0.00,WUHU216DAVISVP2,2013-10-11 21:08:00,
2013-10-11 14:13:00,77.3,47.4,29.95,WNW,290,3.3,6.0,35,0.00,,,0.00,WUHU216DAVISVP2,2013-10-11 21:13:00,
2013-10-11 14:18:00,77.4,47.5,29.95,NNW,344,1.1,6.0,35,0.00,,,0.00,WUHU216DAVISVP2,2013-10-11 21:18:00,
2013-10-11 14:23:00,77.9,47.1,29.95,West,278,1.0,6.0,34,0.00,,,0.00,WUHU216DAVISVP2,2013-10-11 21:23:00,
2013-10-11 14:28:00,77.8,47.0,29.95,WSW,245,2.0,6.0,34,0.00,,,0.00,WUHU216DAVISVP2,2013-10-11 21:28:00,
2013-10-11 14:33:00,77.6,47.6,29.95,NW,309,3.0,5.0,35,0.00,,,0.00,WUHU216DAVISVP2,2013-10-11 21:33:00,
2013-10-11 14:38:00,77.9,47.1,29.95,NE,34,1.0,5.0,34,0.00,,,0.00,WUHU216DAVISVP2,2013-10-11 21:38:00,
2013-10-11 14:43:00,78.3,46.7,29.95,East,85,1.6,5.0,33,0.00,,,0.00,WUHU216DAVISVP2,2013-10-11 21:43:00,
2013-10-11 14:48:00,78.9,46.4,29.95,NNE,26,1.4,5.0,32,0.00,,,0.00,WUHU216DAVISVP2,2013-10-11 21:48:00,
2013-10-11 14:53:00,78.8,47.1,29.95,WNW,290,1.0,4.0,33,0.00,,,0.00,WUHU216DAVISVP2,2013-10-11 21:53:00,
2013-10-11 14:58:00,78.6,46.1,29.95,WNW,302,2.0,4.0,32,0.00,,,0.00,WUHU216DAVISVP2,2013-10-11 21:58:00,
2013-10-11 15:03:00,77.7,46.9,29.95,WNW,295,2.3,6.0,34,0.00,,,0.00,WUHU216DAVISVP2,2013-10-11 22:03:00,
2013-10-11 15:08:00,77.4,45.2,29.95,NW,304,2.0,6.0,32,0.00,,,0.00,WUHU216DAVISVP2,2013-10-11 22:08:00,
2013-10-11 15:13:00,77.0,45.5,29.95,WNW,302,2.6,6.0,33,0.00,,,0.00,WUHU216DAVISVP2,2013-10-11 22:13:00,
2013-10-11 15:18:00,76.8,44.5,29.95,WNW,292,3.0,6.0,32,0.00,,,0.00,WUHU216DAVISVP2,2013-10-11 22:18:00,
2013-10-11 15:23:00,76.7,46.1,29.94,NNW,346,2.0,6.0,34,0.00,,,0.00,WUHU216DAVISVP2,2013-10-11 22:23:00,
2013-10-11 15:28:00,77.3,45.1,29.94,NNW,330,1.6,6.0,32,0.00,,,0.00,WUHU216DAVISVP2,2013-10-11 22:28:00,
2013-10-11 15:33:00,77.4,45.9,29.94,NW,310,1.9,5.0,33,0.00,,,0.00,WUHU216DAVISVP2,2013-10-11 22:33:00,
2013-10-11 15:38:00,77.3,45.8,29.94,WNW,292,1.9,5.0,33,0.00,,,0.00,WUHU216DAVISVP2,2013-10-11 22:38:00,
2013-10-11 15:43:00,77.1,45.6,29.94,WNW,297,6.0,7.0,33,0.00,,,0.00,WUHU216DAVISVP2,2013-10-11 22:43:00,
2013-10-11 15:48:00,77.2,46.5,29.94,NW,305,1.1,7.0,34,0.00,,,0.00,WUHU216DAVISVP2,2013-10-11 22:48:00,
2013-10-11 15:53:00,77.4,46.8,29.95,NNW,329,1.3,7.0,34,0.00,,,0.00,WUHU216DAVISVP2,2013-10-11 22:53:00,
2013-10-11 15:58:00,77.7,45.3,29.94,WNW,294,4.0,7.0,32,0.00,,,0.00,WUHU216DAVISVP2,2013-10-11 22:58:00,
2013-10-11 16:03:00,77.1,45.6,29.94,NW,323,1.5,6.0,33,0.00,,,0.00,WUHU216DAVISVP2,2013-10-11 23:03:00,
2013-10-11 16:08:00,77.4,46.7,29.94,NW,317,1.6,6.0,34,0.00,,,0.00,WUHU216DAVISVP2,2013-10-11 23:08:00,
2013-10-11 16:13:00,77.7,46.1,29.94,NNW,342,1.0,6.0,33,0.00,,,0.00,WUHU216DAVISVP2,2013-10-11 23:13:00,
2013-10-11 16:18:00,78.3,46.0,29.94,NNE,21,1.6,5.0,32,0.00,,,0.00,WUHU216DAVISVP2,2013-10-11 23:18:00,
2013-10-11 16:23:00,78.7,46.2,29.94,NW,308,1.5,4.0,32,0.00,,,0.00,WUHU216DAVISVP2,2013-10-11 23:23:00,
2013-10-11 16:28:00,78.1,45.7,29.94,NW,312,1.8,5.0,32,0.00,,,0.00,WUHU216DAVISVP2,2013-10-11 23:28:00,
2013-10-11 16:33:00,78.3,45.0,29.93,NW,307,1.3,5.0,31,0.00,,,0.00,WUHU216DAVISVP2,2013-10-11 23:33:00,
2013-10-11 16:38:00,78.5,46.0,29.93,WNW,301,1.0,5.0,32,0.00,,,0.00,WUHU216DAVISVP2,2013-10-11 23:38:00,
2013-10-11 16:43:00,78.8,45.6,29.93,WNW,287,1.0,5.0,31,0.00,,,0.00,WUHU216DAVISVP2,2013-10-11 23:43:00,
2013-10-11 16:48:00,78.3,46.0,29.93,NNW,339,1.0,4.0,32,0.00,,,0.00,WUHU216DAVISVP2,2013-10-11 23:48:00,
2013-10-11 16:53:00,78.7,46.2,29.93,East,79,1.0,4.0,32,0.00,,,0.00,WUHU216DAVISVP2,2013-10-11 23:53:00,
2013-10-11 16:58:00,79.3,45.9,29.93,East,80,1.0,4.0,31,0.00,,,0.00,WUHU216DAVISVP2,2013-10-11 23:58:00,
2013-10-11 17:03:00,79.7,46.2,29.93,ENE,72,0.0,2.0,31,0.00,,,0.00,WUHU216DAVISVP2,2013-10-12 00:03:00,
2013-10-11 17:08:00,79.4,46.0,29.93,East,91,0.0,1.0,31,0.00,,,0.00,WUHU216DAVISVP2,2013-10-12 00:08:00,
2013-10-11 17:13:00,79.3,46.7,29.93,East,92,0.0,1.0,32,0.00,,,0.00,WUHU216DAVISVP2,2013-10-12 00:13:00,
2013-10-11 17:18:00,79.9,47.3,29.93,NW,320,0.0,0.0,32,0.00,,,0.00,WUHU216DAVISVP2,2013-10-12 00:18:00,
2013-10-11 17:23:00,80.0,46.6,29.92,South,191,0.0,0.0,31,0.00,,,0.00,WUHU216DAVISVP2,2013-10-12 00:23:00,
2013-10-11 17:28:00,79.3,45.9,29.92,NNW,334,0.0,0.0,31,0.00,,,0.00,WUHU216DAVISVP2,2013-10-12 00:28:00,
2013-10-11 17:33:00,78.6,46.1,29.92,NE,49,0.0,0.0,32,0.00,,,0.00,WUHU216DAVISVP2,2013-10-12 00:33:00,
2013-10-11 17:38:00,78.0,45.6,29.92,ENE,68,0.0,0.0,32,0.00,,,0.00,WUHU216DAVISVP2,2013-10-12 00:38:00,
2013-10-11 17:43:00,77.9,47.1,29.92,NNW,339,0.0,0.0,34,0.00,,,0.00,WUHU216DAVISVP2,2013-10-12 00:43:00,
2013-10-11 17:48:00,77.7,46.9,29.92,NNW,338,0.0,0.0,34,0.00,,,0.00,WUHU216DAVISVP2,2013-10-12 00:48:00,
2013-10-11 17:53:00,77.3,46.6,29.92,NNW,338,0.0,0.0,34,0.00,,,0.00,WUHU216DAVISVP2,2013-10-12 00:53:00,
2013-10-11 17:58:00,76.1,45.7,29.92,NW,323,1.0,1.0,34,0.00,,,0.00,WUHU216DAVISVP2,2013-10-12 00:58:00,
2013-10-11 18:03:00,74.9,45.4,29.92,WNW,293,1.0,2.0,35,0.00,,,0.00,WUHU216DAVISVP2,2013-10-12 01:03:00,
2013-10-11 18:08:00,74.1,45.3,29.92,WNW,294,0.0,2.0,36,0.00,,,0.00,WUHU216DAVISVP2,2013-10-12 01:08:00,
2013-10-11 18:13:00,73.5,45.5,29.92,WNW,284,0.0,2.0,37,0.00,,,0.00,WUHU216DAVISVP2,2013-10-12 01:13:00,
2013-10-11 18:18:00,72.9,45.7,29.92,WNW,285,0.0,2.0,38,0.00,,,0.00,WUHU216DAVISVP2,2013-10-12 01:18:00,
2013-10-11 18:23:00,72.4,45.2,29.92,WNW,285,0.0,1.0,38,0.00,,,0.00,WUHU216DAVISVP2,2013-10-12 01:23:00,
2013-10-11 18:28:00,71.9,45.5,29.92,WNW,285,0.0,1.0,39,0.00,,,0.00,WUHU216DAVISVP2,2013-10-12 01:28:00,
2013-10-11 18:33:00,71.3,45.6,29.92,WNW,285,0.0,1.0,40,0.00,,,0.00,WUHU216DAVISVP2,2013-10-12 01:33:00,
2013-10-11 18:38:00,70.7,45.2,29.92,WNW,285,0.0,0.0,40,0.00,,,0.00,WUHU216DAVISVP2,2013-10-12 01:38:00,
2013-10-11 18:43:00,70.2,45.4,29.92,WNW,285,0.0,0.0,41,0.00,,,0.00,WUHU216DAVISVP2,2013-10-12 01:43:00,
2013-10-11 18:48:00,69.8,45.6,29.92,WNW,285,0.0,0.0,42,0.00,,,0.00,WUHU216DAVISVP2,2013-10-12 01:48:00,
2013-10-11 18:53:00,69.3,45.1,29.93,WNW,285,0.0,0.0,42,0.00,,,0.00,WUHU216DAVISVP2,2013-10-12 01:53:00,
2013-10-11 18:58:00,68.9,45.4,29.93,WNW,285,0.0,0.0,43,0.00,,,0.00,WUHU216DAVISVP2,2013-10-12 01:58:00,
2013-10-11 19:03:00,68.5,45.0,29.93,WNW,285,0.0,0.0,43,0.00,,,0.00,WUHU216DAVISVP2,2013-10-12 02:03:00,
2013-10-11 19:08:00,67.9,46.3,29.93,WNW,285,0.0,0.0,46,0.00,,,0.00,WUHU216DAVISVP2,2013-10-12 02:08:00,
2013-10-11 19:13:00,67.5,46.0,29.93,WNW,285,0.0,0.0,46,0.00,,,0.00,WUHU216DAVISVP2,2013-10-12 02:13:00,
2013-10-11 19:18:00,67.1,45.6,29.93,WNW,285,0.0,0.0,46,0.00,,,0.00,WUHU216DAVISVP2,2013-10-12 02:18:00,
2013-10-11 19:23:00,66.8,46.5,29.93,WNW,285,0.0,0.0,48,0.00,,,0.00,WUHU216DAVISVP2,2013-10-12 02:23:00,
2013-10-11 19:28:00,66.9,47.1,29.93,WNW,285,0.0,0.0,49,0.00,,,0.00,WUHU216DAVISVP2,2013-10-12 02:28:00,
2013-10-11 19:33:00,66.9,47.7,29.93,WNW,285,0.0,0.0,50,0.00,,,0.00,WUHU216DAVISVP2,2013-10-12 02:33:00,
2013-10-11 19:38:00,66.8,47.6,29.93,WNW,285,0.0,0.0,50,0.00,,,0.00,WUHU216DAVISVP2,2013-10-12 02:38:00,
2013-10-11 19:43:00,66.6,47.4,29.93,WNW,285,0.0,0.0,50,0.00,,,0.00,WUHU216DAVISVP2,2013-10-12 02:43:00,
2013-10-11 19:48:00,66.3,47.1,29.93,WNW,285,0.0,0.0,50,0.00,,,0.00,WUHU216DAVISVP2,2013-10-12 02:48:00,
2013-10-11 19:53:00,65.9,46.8,29.93,WNW,285,0.0,0.0,50,0.00,,,0.00,WUHU216DAVISVP2,2013-10-12 02:53:00,
2013-10-11 19:58:00,65.3,46.8,29.93,WNW,285,0.0,0.0,51,0.00,,,0.00,WUHU216DAVISVP2,2013-10-12 02:58:00,
2013-10-11 20:03:00,64.8,46.8,29.93,WNW,285,0.0,0.0,52,0.00,,,0.00,WUHU216DAVISVP2,2013-10-12 03:03:00,
2013-10-11 20:08:00,64.4,47.0,29.94,WNW,285,0.0,0.0,53,0.00,,,0.00,WUHU216DAVISVP2,2013-10-12 03:08:00,
2013-10-11 20:13:00,64.0,47.6,29.94,WNW,285,0.0,0.0,55,0.00,,,0.00,WUHU216DAVISVP2,2013-10-12 03:13:00,
2013-10-11 20:18:00,64.0,48.1,29.94,WNW,285,0.0,0.0,56,0.00,,,0.00,WUHU216DAVISVP2,2013-10-12 03:18:00,
2013-10-11 20:23:00,63.7,47.8,29.94,WNW,285,0.0,0.0,56,0.00,,,0.00,WUHU216DAVISVP2,2013-10-12 03:23:00,
2013-10-11 20:28:00,63.2,47.7,29.94,WNW,285,0.0,0.0,57,0.00,,,0.00,WUHU216DAVISVP2,2013-10-12 03:28:00,
2013-10-11 20:33:00,62.8,47.3,29.94,WNW,285,0.0,0.0,57,0.00,,,0.00,WUHU216DAVISVP2,2013-10-12 03:33:00,
2013-10-11 20:38:00,62.2,47.2,29.94,WNW,285,0.0,0.0,58,0.00,,,0.00,WUHU216DAVISVP2,2013-10-12 03:38:00,
2013-10-11 20:43:00,61.6,47.7,29.94,WNW,285,0.0,0.0,60,0.00,,,0.00,WUHU216DAVISVP2,2013-10-12 03:43:00,
2013-10-11 20:48:00,61.0,47.6,29.94,WNW,285,0.0,0.0,61,0.00,,,0.00,WUHU216DAVISVP2,2013-10-12 03:48:00,
2013-10-11 20:53:00,60.6,47.7,29.94,WNW,285,0.0,0.0,62,0.00,,,0.00,WUHU216DAVISVP2,2013-10-12 03:53:00,
2013-10-11 20:58:00,60.5,48.0,29.95,WNW,285,0.0,0.0,63,0.00,,,0.00,WUHU216DAVISVP2,2013-10-12 03:58:00,
2013-10-11 21:01:00,60.4,47.9,29.95,WNW,285,0.0,0.0,63,0.00,,,0.00,WUHU216DAVISVP2,2013-10-12 04:01:00,
2013-10-11 21:06:00,60.2,48.1,29.95,WNW,285,0.0,0.0,64,0.00,,,0.00,WUHU216DAVISVP2,2013-10-12 04:06:00,
2013-10-11 21:11:00,59.9,47.8,29.95,WNW,285,0.0,0.0,64,0.00,,,0.00,WUHU216DAVISVP2,2013-10-12 04:11:00,
2013-10-11 21:16:00,59.5,47.5,29.95,WNW,285,0.0,0.0,64,0.00,,,0.00,WUHU216DAVISVP2,2013-10-12 04:16:00,
2013-10-11 21:21:00,59.1,47.9,29.95,WNW,285,0.0,0.0,66,0.00,,,0.00,WUHU216DAVISVP2,2013-10-12 04:21:00,
2013-10-11 21:26:00,59.0,48.2,29.95,WNW,285,0.0,0.0,67,0.00,,,0.00,WUHU216DAVISVP2,2013-10-12 04:26:00,
2013-10-11 21:31:00,59.5,49.1,29.95,WNW,286,0.0,0.0,68,0.00,,,0.00,WUHU216DAVISVP2,2013-10-12 04:31:00,
2013-10-11 21:36:00,59.9,48.3,29.95,WNW,285,0.0,0.0,65,0.00,,,0.00,WUHU216DAVISVP2,2013-10-12 04:36:00,
2013-10-11 21:41:00,60.1,48.0,29.95,WNW,285,0.0,0.0,64,0.00,,,0.00,WUHU216DAVISVP2,2013-10-12 04:41:00,
2013-10-11 21:46:00,60.1,48.4,29.95,WNW,285,0.0,0.0,65,0.00,,,0.00,WUHU216DAVISVP2,2013-10-12 04:46:00,
2013-10-11 21:51:00,59.8,48.2,29.95,WNW,285,0.0,0.0,65,0.00,,,0.00,WUHU216DAVISVP2,2013-10-12 04:51:00,
2013-10-11 21:56:00,59.7,47.6,29.95,WNW,286,0.0,0.0,64,0.00,,,0.00,WUHU216DAVISVP2,2013-10-12 04:56:00,
2013-10-11 22:01:00,59.9,47.4,29.96,WNW,285,0.0,0.0,63,0.00,,,0.00,WUHU216DAVISVP2,2013-10-12 05:01:00,
2013-10-11 22:06:00,59.8,46.9,29.96,WNW,285,0.0,0.0,62,0.00,,,0.00,WUHU216DAVISVP2,2013-10-12 05:06:00,
2013-10-11 22:11:00,60.0,46.6,29.96,SE,132,0.0,0.0,61,0.00,,,0.00,WUHU216DAVISVP2,2013-10-12 05:11:00,
2013-10-11 22:16:00,60.7,46.9,29.96,SE,143,0.0,0.0,60,0.00,,,0.00,WUHU216DAVISVP2,2013-10-12 05:16:00,
2013-10-11 22:21:00,61.2,46.4,29.96,SE,138,0.0,0.0,58,0.00,,,0.00,WUHU216DAVISVP2,2013-10-12 05:21:00,
2013-10-11 22:26:00,61.6,46.8,29.96,SSE,148,0.0,0.0,58,0.00,,,0.00,WUHU216DAVISVP2,2013-10-12 05:26:00,
2013-10-11 22:31:00,61.8,47.0,29.96,SE,145,0.0,0.0,58,0.00,,,0.00,WUHU216DAVISVP2,2013-10-12 05:31:00,
2013-10-11 22:36:00,61.7,46.9,29.96,SE,144,0.0,0.0,58,0.00,,,0.00,WUHU216DAVISVP2,2013-10-12 05:36:00,
2013-10-11 22:41:00,61.4,46.6,29.96,SE,143,0.0,0.0,58,0.00,,,0.00,WUHU216DAVISVP2,2013-10-12 05:41:00,
2013-10-11 22:46:00,61.1,46.8,29.96,SE,143,0.0,0.0,59,0.00,,,0.00,WUHU216DAVISVP2,2013-10-12 05:46:00,
2013-10-11 22:51:00,60.9,46.9,29.96,SE,144,0.0,0.0,60,0.00,,,0.00,WUHU216DAVISVP2,2013-10-12 05:51:00,
2013-10-11 22:56:00,60.5,46.7,29.96,SE,144,0.0,0.0,60,0.00,,,0.00,WUHU216DAVISVP2,2013-10-12 05:56:00,
2013-10-11 23:01:00,60.1,46.7,29.96,SE,143,0.0,0.0,61,0.00,,,0.00,WUHU216DAVISVP2,2013-10-12 06:01:00,
2013-10-11 23:06:00,59.7,47.2,29.96,SE,143,0.0,0.0,63,0.00,,,0.00,WUHU216DAVISVP2,2013-10-12 06:06:00,
2013-10-11 23:11:00,59.6,47.6,29.96,SE,144,0.0,0.0,64,0.00,,,0.00,WUHU216DAVISVP2,2013-10-12 06:11:00,
2013-10-11 23:16:00,59.5,47.5,29.96,SE,143,0.0,0.0,64,0.00,,,0.00,WUHU216DAVISVP2,2013-10-12 06:16:00,
2013-10-11 23:21:00,59.3,46.8,29.96,ESE,121,0.0,0.0,63,0.00,,,0.00,WUHU216DAVISVP2,2013-10-12 06:21:00,
2013-10-11 23:26:00,59.5,46.2,29.96,ESE,112,0.0,0.0,61,0.00,,,0.00,WUHU216DAVISVP2,2013-10-12 06:26:00,
2013-10-11 23:31:00,59.6,46.1,29.96,ESE,111,0.0,0.0,61,0.00,,,0.00,WUHU216DAVISVP2,2013-10-12 06:31:00,
2013-10-11 23:36:00,59.5,46.2,29.96,ESE,112,0.0,0.0,61,0.00,,,0.00,WUHU216DAVISVP2,2013-10-12 06:36:00,
2013-10-11 23:41:00,59.2,45.9,29.96,ESE,111,0.0,0.0,61,0.00,,,0.00,WUHU216DAVISVP2,2013-10-12 06:41:00,
2013-10-11 23:46:00,59.1,46.2,29.96,ESE,112,0.0,0.0,62,0.00,,,0.00,WUHU216DAVISVP2,2013-10-12 06:46:00,
2013-10-11 23:51:00,58.9,45.9,29.96,ESE,111,0.0,0.0,62,0.00,,,0.00,WUHU216DAVISVP2,2013-10-12 06:51:00,
2013-10-11 23:56:00,58.8,45.9,29.96,SE,132,0.0,0.0,62,0.00,,,0.00,WUHU216DAVISVP2,2013-10-12 06:56:00,